Time;durP1;ratioP1;P1;durP2;ratioP2;P2;SDS_P1;SDS_P2;PMS_P1;PMS_P2;Temp;Humidity;BMP_temperature;BMP_pressure;BME280_temperature;BME280_humidity;BME280_pressure;Samples;Min_cycle;Max_cycle;Signal;HPM_P1;HPM_P2
2023/10/29 00:01:03;;;;;;;1.43;1.33;;;8.40;99.90;8.20;99318.00;;;;4912526;28;116230;-66
2023/10/29 00:03:28;;;;;;;1.03;0.73;;;8.30;99.90;8.10;99326.00;;;;4913997;28;89048;-66
2023/10/29 00:05:54;;;;;;;0.60;0.60;;;8.00;99.90;8.10;99325.00;;;;4911580;28;108343;-66
2023/10/29 00:08:23;;;;;;;1.50;1.10;;;8.20;99.90;8.00;99315.00;;;;4913000;28;108263;-66
2023/10/29 00:10:48;;;;;;;1.37;1.00;;;8.20;99.90;8.00;99316.00;;;;4909662;28;117370;-66
2023/10/29 00:13:14;;;;;;;1.17;0.80;;;8.20;99.90;8.00;99315.00;;;;4907691;28;117004;-66
2023/10/29 00:15:40;;;;;;;1.80;1.10;;;8.10;99.90;7.90;99316.00;;;;4915241;28;110760;-66
2023/10/29 00:18:08;;;;;;;0.63;0.63;;;8.10;99.90;7.90;99315.00;;;;4910789;28;87861;-66
2023/10/29 00:20:35;;;;;;;2.00;1.27;;;8.10;99.90;7.90;99315.00;;;;4912149;28;88974;-67
2023/10/29 00:23:00;;;;;;;2.10;0.93;;;8.00;99.90;7.80;99319.00;;;;4911130;28;88924;-66
2023/10/29 00:25:26;;;;;;;1.07;0.83;;;8.00;99.90;7.80;99309.00;;;;4912481;28;111785;-67
2023/10/29 00:27:52;;;;;;;1.97;0.83;;;7.90;99.90;7.80;99305.00;;;;4911425;28;108331;-67
2023/10/29 00:30:17;;;;;;;1.83;1.57;;;7.90;99.90;7.80;99297.00;;;;4910694;28;119883;-67
2023/10/29 00:32:43;;;;;;;1.00;0.93;;;7.90;99.90;7.80;99304.00;;;;4913310;28;87019;-66
2023/10/29 00:35:09;;;;;;;1.40;0.87;;;7.90;99.90;7.80;99297.00;;;;4913996;28;109839;-67
2023/10/29 00:37:35;;;;;;;1.77;1.27;;;8.00;99.90;7.80;99299.00;;;;4911810;28;109219;-67
2023/10/29 00:40:01;;;;;;;0.50;0.50;;;8.00;99.90;7.80;99289.00;;;;4908893;28;118364;-67
2023/10/29 00:42:27;;;;;;;0.90;0.87;;;8.00;99.90;7.90;99285.00;;;;4906404;28;106986;-66
2023/10/29 00:44:52;;;;;;;1.23;1.23;;;8.00;99.90;7.90;99277.00;;;;4910391;28;110650;-66
2023/10/29 00:47:18;;;;;;;0.70;0.70;;;8.40;99.90;7.90;99293.00;;;;4909846;28;92388;-67
2023/10/29 00:49:44;;;;;;;0.67;0.60;;;8.00;99.90;7.90;99277.00;;;;4891331;28;89477;-67
2023/10/29 00:52:10;;;;;;;2.33;1.07;;;8.00;99.90;8.00;99280.00;;;;4905478;28;117988;-66
2023/10/29 00:54:36;;;;;;;0.83;0.70;;;8.10;99.90;8.00;99289.00;;;;4904122;28;110441;-66
2023/10/29 00:57:02;;;;;;;0.83;0.83;;;8.10;99.90;8.10;99289.00;;;;4906491;28;107399;-66
2023/10/29 00:59:30;;;;;;;0.93;0.80;;;8.20;99.90;8.10;99282.00;;;;4908226;28;108377;-67
2023/10/29 01:01:56;;;;;;;1.33;0.93;;;8.20;99.90;8.20;99286.00;;;;4911890;28;105735;-67
2023/10/29 01:04:22;;;;;;;1.33;1.00;;;8.30;99.90;8.30;99283.00;;;;4906956;28;107964;-67
2023/10/29 01:06:49;;;;;;;1.40;0.60;;;8.30;99.90;8.40;99283.00;;;;4893452;28;88051;-66
2023/10/29 01:09:15;;;;;;;2.03;0.80;;;8.40;99.90;8.40;99260.00;;;;4910139;28;111859;-66
2023/10/29 01:11:40;;;;;;;1.87;0.70;;;8.50;99.90;8.50;99273.00;;;;4906881;28;118039;-66
2023/10/29 01:14:06;;;;;;;2.50;1.20;;;8.60;99.90;8.60;99264.00;;;;4913883;28;103006;-66
2023/10/29 01:16:32;;;;;;;1.13;0.70;;;8.70;99.90;8.70;99253.00;;;;4911527;28;87732;-66
2023/10/29 01:18:58;;;;;;;0.80;0.73;;;8.80;99.90;8.80;99257.00;;;;4910869;28;88575;-66
2023/10/29 01:21:28;;;;;;;0.87;0.60;;;8.80;99.90;8.90;99256.00;;;;4911558;28;88644;-67
2023/10/29 01:23:54;;;;;;;1.47;0.90;;;8.90;99.90;8.90;99257.00;;;;4908581;28;88127;-66
2023/10/29 01:26:20;;;;;;;0.70;0.40;;;9.00;99.90;9.00;99248.00;;;;4910289;28;101147;-67
2023/10/29 01:28:46;;;;;;;0.63;0.63;;;9.10;99.90;9.10;99251.00;;;;4909083;28;90146;-66
2023/10/29 01:31:11;;;;;;;1.60;0.87;;;9.10;99.90;9.10;99250.00;;;;4907628;28;99330;-66
2023/10/29 01:33:38;;;;;;;4.60;0.50;;;9.20;99.90;9.10;99245.00;;;;4908119;28;109544;-66
2023/10/29 01:36:05;;;;;;;1.50;0.60;;;9.20;99.90;9.20;99242.00;;;;4908327;28;88908;-67
2023/10/29 01:38:32;;;;;;;1.40;0.40;;;9.30;99.90;9.20;99250.00;;;;4913577;28;88748;-66
2023/10/29 01:40:58;;;;;;;0.67;0.60;;;9.30;99.90;9.20;99254.00;;;;4909498;28;88237;-67
2023/10/29 01:43:24;;;;;;;1.27;0.63;;;9.30;99.90;9.20;99249.00;;;;4906252;28;88377;-67
2023/10/29 01:45:50;;;;;;;0.40;0.40;;;9.30;99.90;9.20;99248.00;;;;4913996;28;87252;-66
2023/10/29 01:48:16;;;;;;;1.03;0.97;;;9.30;99.90;9.30;99253.00;;;;4907368;28;117717;-66
2023/10/29 01:50:42;;;;;;;2.37;0.80;;;9.40;99.90;9.40;99255.00;;;;4910348;28;88698;-66
2023/10/29 01:53:07;;;;;;;4.27;0.70;;;9.40;99.90;9.40;99260.00;;;;4912666;28;110646;-66
2023/10/29 01:55:39;;;;;;;3.50;0.90;;;9.50;99.90;9.50;99250.00;;;;4911996;28;108049;-66
2023/10/29 01:58:05;;;;;;;0.93;0.70;;;9.50;99.90;9.50;99250.00;;;;4910465;28;117859;-66
2023/10/29 02:00:31;;;;;;;0.50;0.50;;;9.70;99.90;9.60;99242.00;;;;4913432;28;99066;-66
2023/10/29 02:02:56;;;;;;;1.53;0.53;;;9.60;99.90;9.70;99251.00;;;;4909687;28;110941;-66
2023/10/29 02:05:22;;;;;;;3.53;0.60;;;9.70;99.90;9.70;99246.00;;;;4914717;28;87664;-66
2023/10/29 02:07:48;;;;;;;1.47;0.93;;;9.80;99.90;9.80;99257.00;;;;4921611;28;87725;-66
2023/10/29 02:10:14;;;;;;;1.03;0.70;;;9.90;99.90;9.90;99254.00;;;;4911848;28;87610;-67
2023/10/29 02:12:39;;;;;;;1.40;0.70;;;9.90;99.90;10.00;99264.00;;;;4911919;28;88147;-66
2023/10/29 02:15:05;;;;;;;0.77;0.77;;;10.00;99.90;10.00;99266.00;;;;4909124;28;87880;-67
2023/10/29 02:17:31;;;;;;;0.93;0.83;;;10.10;99.90;10.10;99264.00;;;;4910512;28;104205;-66
2023/10/29 02:19:57;;;;;;;0.60;0.50;;;10.20;99.90;10.10;99270.00;;;;4905871;28;117179;-67
2023/10/29 02:22:29;;;;;;;1.30;0.93;;;10.20;99.90;10.20;99264.00;;;;4910173;28;88006;-67
2023/10/29 02:24:55;;;;;;;0.70;0.70;;;10.20;99.90;10.20;99255.00;;;;4906365;28;88387;-67
2023/10/29 02:27:21;;;;;;;0.33;0.33;;;10.20;99.90;10.20;99237.00;;;;4909541;28;117892;-66
2023/10/29 02:29:47;;;;;;;2.37;1.10;;;10.30;99.90;10.20;99251.00;;;;4909943;28;88036;-66
2023/10/29 02:32:13;;;;;;;1.23;0.87;;;10.30;99.90;10.30;99251.00;;;;4910102;28;92591;-67
2023/10/29 02:34:39;;;;;;;1.13;0.97;;;10.60;99.90;10.30;99263.00;;;;4911636;28;106899;-67
2023/10/29 02:37:04;;;;;;;2.87;0.90;;;10.40;99.90;10.40;99261.00;;;;4908346;28;116212;-68
2023/10/29 02:39:30;;;;;;;1.90;1.00;;;10.40;99.90;10.40;99257.00;;;;4908636;28;117895;-68
2023/10/29 02:41:56;;;;;;;1.50;0.90;;;10.40;99.90;10.40;99258.00;;;;4909076;28;95312;-68
2023/10/29 02:44:22;;;;;;;1.93;0.97;;;10.50;99.90;10.40;99268.00;;;;4907262;28;109553;-68
2023/10/29 02:46:47;;;;;;;1.23;0.80;;;10.50;99.90;10.40;99263.00;;;;4908612;28;106203;-67
2023/10/29 02:49:13;;;;;;;0.87;0.70;;;10.50;99.90;10.50;99258.00;;;;4912955;28;116269;-67
2023/10/29 02:51:39;;;;;;;9.83;1.53;;;10.50;99.90;10.50;99264.00;;;;4913037;28;88146;-68
2023/10/29 02:54:05;;;;;;;2.90;0.97;;;10.50;99.90;10.50;99262.00;;;;4910979;28;88131;-67
2023/10/29 02:56:31;;;;;;;1.20;1.10;;;10.50;99.90;10.50;99270.00;;;;4908865;28;117212;-68
2023/10/29 02:58:57;;;;;;;2.07;1.37;;;10.50;99.90;10.50;99271.00;;;;4910095;28;88264;-67
2023/10/29 03:01:22;;;;;;;4.80;0.90;;;10.50;99.90;10.50;99259.00;;;;4911929;28;88083;-67
2023/10/29 03:03:48;;;;;;;2.33;1.13;;;10.50;99.90;10.50;99264.00;;;;4910050;28;107221;-69
2023/10/29 03:06:14;;;;;;;3.43;1.30;;;10.50;99.90;10.50;99271.00;;;;4886730;28;118551;-68
2023/10/29 03:08:40;;;;;;;2.90;1.37;;;10.50;99.90;10.50;99261.00;;;;4912698;28;89959;-68
2023/10/29 03:11:06;;;;;;;4.00;1.37;;;10.50;99.90;10.50;99263.00;;;;4909755;28;97016;-68
2023/10/29 03:13:31;;;;;;;2.20;0.87;;;10.50;99.90;10.50;99272.00;;;;4907445;28;89758;-68
2023/10/29 03:15:57;;;;;;;5.17;1.43;;;10.50;99.90;10.50;99275.00;;;;4906218;28;117867;-68
2023/10/29 03:18:23;;;;;;;2.53;1.20;;;10.60;99.90;10.50;99267.00;;;;4908265;28;88449;-68
2023/10/29 03:20:49;;;;;;;3.87;1.10;;;10.50;99.90;10.50;99265.00;;;;4909409;28;90759;-68
2023/10/29 03:23:15;;;;;;;2.10;1.00;;;10.50;99.90;10.50;99247.00;;;;4890903;28;87130;-68
2023/10/29 03:25:40;;;;;;;1.37;0.77;;;11.00;99.90;10.50;99244.00;;;;4905175;28;118808;-68
2023/10/29 03:28:06;;;;;;;1.47;0.70;;;10.60;99.90;10.50;99237.00;;;;4909226;28;88589;-68
2023/10/29 03:30:32;;;;;;;1.60;0.97;;;10.60;99.90;10.50;99245.00;;;;4910861;28;106298;-68
2023/10/29 03:32:59;;;;;;;0.77;0.77;;;10.60;99.90;10.50;99240.00;;;;4907775;28;87780;-68
2023/10/29 03:35:27;;;;;;;0.90;0.83;;;10.50;99.90;10.50;99238.00;;;;4909089;28;88939;-67
2023/10/29 03:37:53;;;;;;;4.20;0.87;;;10.50;99.90;10.50;99241.00;;;;4906133;28;88652;-67
2023/10/29 03:40:19;;;;;;;1.50;1.00;;;10.60;99.90;10.50;99246.00;;;;4909605;28;88038;-67
2023/10/29 03:42:44;;;;;;;2.70;1.30;;;10.50;99.90;10.50;99249.00;;;;4908212;28;109156;-68
2023/10/29 03:45:10;;;;;;;1.27;1.10;;;10.50;99.90;10.50;99235.00;;;;4912115;28;118192;-68
2023/10/29 03:47:36;;;;;;;1.40;1.10;;;10.50;99.90;10.50;99239.00;;;;4909186;28;87516;-68
2023/10/29 03:50:02;;;;;;;1.13;0.90;;;10.50;99.90;10.50;99231.00;;;;4908605;28;110905;-67
2023/10/29 03:52:28;;;;;;;1.23;0.93;;;10.50;99.90;10.40;99222.00;;;;4916004;28;88144;-67
2023/10/29 03:54:53;;;;;;;5.63;1.30;;;10.50;99.90;10.40;99214.00;;;;4915613;28;119152;-67
2023/10/29 03:57:19;;;;;;;1.13;0.77;;;10.50;99.90;10.40;99216.00;;;;4911434;28;120397;-67
2023/10/29 03:59:45;;;;;;;1.27;1.17;;;10.50;99.90;10.40;99219.00;;;;4911585;28;109800;-67
2023/10/29 04:02:10;;;;;;;1.67;1.10;;;10.50;99.90;10.40;99215.00;;;;4916690;28;88055;-68
2023/10/29 04:04:36;;;;;;;4.53;1.40;;;10.50;99.90;10.40;99212.00;;;;4913029;28;117475;-68
2023/10/29 04:07:02;;;;;;;1.63;1.00;;;10.40;99.90;10.40;99209.00;;;;4910596;28;88094;-68
2023/10/29 04:09:28;;;;;;;3.33;1.13;;;10.50;99.90;10.40;99214.00;;;;4913186;28;98985;-68
2023/10/29 04:11:54;;;;;;;2.07;1.27;;;10.50;99.90;10.40;99210.00;;;;4913504;28;108643;-68
2023/10/29 04:14:22;;;;;;;0.97;0.97;;;10.50;99.90;10.40;99203.00;;;;4910575;28;106029;-68
2023/10/29 04:16:48;;;;;;;1.87;1.20;;;10.50;99.90;10.40;99198.00;;;;4910673;28;117732;-68
2023/10/29 04:19:14;;;;;;;1.23;1.13;;;10.50;99.90;10.50;99186.00;;;;4909606;28;89097;-68
2023/10/29 04:21:39;;;;;;;2.83;0.73;;;10.50;99.90;10.50;99186.00;;;;4910985;28;109208;-68
2023/10/29 04:24:06;;;;;;;1.23;0.97;;;10.50;99.90;10.50;99188.00;;;;4896051;28;117729;-68
2023/10/29 04:26:31;;;;;;;1.57;1.07;;;10.60;99.90;10.50;99190.00;;;;4910449;28;107441;-66
2023/10/29 04:28:57;;;;;;;2.23;1.63;;;10.60;99.90;10.50;99187.00;;;;4908794;28;110528;-67
2023/10/29 04:31:23;;;;;;;1.20;1.10;;;10.60;99.90;10.50;99192.00;;;;4910612;28;108608;-66
2023/10/29 04:33:48;;;;;;;1.47;1.00;;;10.60;99.90;10.60;99183.00;;;;4914916;28;88685;-66
2023/10/29 04:36:24;;;;;;;2.00;0.90;;;10.60;99.90;10.60;99182.00;;;;4909622;28;88431;-67
2023/10/29 04:38:50;;;;;;;5.67;1.30;;;10.60;99.90;10.60;99198.00;;;;4911496;28;87831;-67
2023/10/29 04:41:16;;;;;;;1.70;0.87;;;10.60;99.90;10.60;99189.00;;;;4915027;28;87815;-67
2023/10/29 04:43:42;;;;;;;2.37;1.27;;;10.60;99.90;10.70;99179.00;;;;4911812;28;89555;-67
2023/10/29 04:46:10;;;;;;;2.83;1.67;;;10.70;99.90;10.70;99187.00;;;;4909304;28;118004;-68
2023/10/29 04:48:43;;;;;;;3.90;1.07;;;10.70;99.90;10.70;99179.00;;;;4891136;28;88063;-68
2023/10/29 04:51:09;;;;;;;2.40;1.10;;;10.80;99.90;10.70;99172.00;;;;4893111;28;87921;-67
2023/10/29 04:53:35;;;;;;;1.03;0.93;;;10.80;99.90;10.80;99171.00;;;;4916879;28;89194;-67
2023/10/29 04:56:03;;;;;;;4.80;1.17;;;10.80;99.90;10.80;99173.00;;;;4914434;28;87908;-68
2023/10/29 04:58:29;;;;;;;1.13;1.03;;;10.80;99.90;10.80;99173.00;;;;4892417;28;100847;-67
2023/10/29 05:00:56;;;;;;;3.23;0.77;;;10.80;99.90;10.80;99167.00;;;;4913573;28;87375;-67
2023/10/29 05:03:27;;;;;;;1.30;0.73;;;10.90;99.90;10.80;99169.00;;;;4913395;28;88664;-68
2023/10/29 05:05:54;;;;;;;5.37;1.00;;;10.90;99.90;10.90;99156.00;;;;4913900;28;87755;-67
2023/10/29 05:08:20;;;;;;;2.73;1.00;;;10.90;99.90;10.90;99151.00;;;;4913353;28;88847;-65
2023/10/29 05:10:46;;;;;;;2.10;0.70;;;10.90;99.90;10.90;99155.00;;;;4913448;28;109918;-68
2023/10/29 05:13:13;;;;;;;1.87;0.70;;;10.90;99.90;10.90;99153.00;;;;4910291;28;89062;-68
2023/10/29 05:15:38;;;;;;;1.67;0.83;;;11.00;99.90;10.90;99156.00;;;;4912341;28;87954;-68
2023/10/29 05:18:04;;;;;;;0.70;0.70;;;11.00;99.90;11.00;99144.00;;;;4910608;28;87748;-69
2023/10/29 05:20:30;;;;;;;2.53;1.00;;;11.00;99.90;11.00;99147.00;;;;4889656;28;103123;-68
2023/10/29 05:22:56;;;;;;;1.03;0.80;;;11.00;99.90;11.00;99149.00;;;;4910109;28;88943;-68
2023/10/29 05:25:21;;;;;;;1.60;1.50;;;11.10;99.90;11.10;99147.00;;;;4909642;28;88186;-68
2023/10/29 05:27:55;;;;;;;1.77;1.13;;;11.10;99.90;11.10;99133.00;;;;4911423;28;88311;-68
2023/10/29 05:30:21;;;;;;;1.33;1.10;;;11.10;99.90;11.10;99133.00;;;;4907483;28;89158;-68
2023/10/29 05:32:47;;;;;;;1.90;1.13;;;11.10;99.90;11.10;99122.00;;;;4908418;28;108565;-69
2023/10/29 05:35:13;;;;;;;3.70;1.17;;;11.20;99.90;11.20;99118.00;;;;4909452;28;88381;-68
2023/10/29 05:37:38;;;;;;;2.00;0.97;;;11.20;99.90;11.20;99114.00;;;;4904912;28;88027;-68
2023/10/29 05:40:07;;;;;;;2.53;0.80;;;11.30;99.90;11.30;99114.00;;;;4895531;28;110080;-68
2023/10/29 05:42:33;;;;;;;2.20;1.10;;;11.30;99.90;11.30;99112.00;;;;4908626;28;88498;-68
2023/10/29 05:44:59;;;;;;;1.50;1.10;;;11.30;99.90;11.40;99110.00;;;;4908948;28;88735;-67
2023/10/29 05:47:24;;;;;;;1.57;1.27;;;11.40;99.90;11.40;99109.00;;;;4908671;28;111627;-66
2023/10/29 05:49:50;;;;;;;2.63;0.80;;;11.40;99.90;11.50;99110.00;;;;4913822;28;109576;-66
2023/10/29 05:52:16;;;;;;;1.17;0.90;;;11.50;99.90;11.50;99104.00;;;;4910847;28;99285;-68
2023/10/29 05:54:42;;;;;;;1.10;0.67;;;11.50;99.90;11.60;99104.00;;;;4909104;28;106337;-68
2023/10/29 05:57:07;;;;;;;1.63;0.93;;;11.60;99.90;11.60;99111.00;;;;4912660;28;88954;-67
2023/10/29 05:59:33;;;;;;;2.23;1.53;;;11.60;99.90;11.70;99108.00;;;;4911624;28;87901;-66
2023/10/29 06:01:59;;;;;;;0.67;0.67;;;11.70;99.90;11.70;99109.00;;;;4911287;28;89634;-66
2023/10/29 06:04:25;;;;;;;0.90;0.90;;;11.80;99.90;11.80;99107.00;;;;4906802;28;117810;-66
2023/10/29 06:06:51;;;;;;;1.40;0.80;;;11.80;99.90;11.90;99101.00;;;;4908327;28;87853;-67
2023/10/29 06:09:17;;;;;;;1.07;0.90;;;11.80;99.90;11.90;99097.00;;;;4909199;28;109645;-67
2023/10/29 06:11:43;;;;;;;1.13;1.03;;;11.90;99.90;11.90;99108.00;;;;4903333;28;118096;-66
2023/10/29 06:14:08;;;;;;;0.60;0.60;;;12.00;99.90;12.00;99107.00;;;;4908024;28;88034;-66
2023/10/29 06:16:35;;;;;;;2.93;0.70;;;12.00;99.90;12.00;99108.00;;;;4909230;28;111290;-66
2023/10/29 06:19:03;;;;;;;0.67;0.60;;;12.10;99.90;12.00;99101.00;;;;4905365;28;89382;-67
2023/10/29 06:21:30;;;;;;;1.40;0.80;;;12.10;99.90;12.10;99105.00;;;;4906312;28;89375;-69
2023/10/29 06:23:56;;;;;;;0.80;0.70;;;12.10;99.90;12.10;99101.00;;;;4906698;28;107461;-68
2023/10/29 06:26:22;;;;;;;1.47;1.00;;;12.10;99.90;12.20;99094.00;;;;4905530;28;107575;-69
2023/10/29 06:28:48;;;;;;;1.63;0.80;;;12.20;99.90;12.20;99084.00;;;;4906258;28;88049;-69
2023/10/29 06:31:13;;;;;;;1.10;0.80;;;12.20;99.90;12.20;99090.00;;;;4030139;28;10001113;-67
2023/10/29 06:33:41;;;;;;;10.80;0.90;;;12.30;99.90;12.30;99092.00;;;;4903982;28;87963;-67
2023/10/29 06:36:07;;;;;;;0.70;0.70;;;12.30;99.90;12.30;99088.00;;;;4901605;28;87751;-67
2023/10/29 06:38:32;;;;;;;0.80;0.70;;;12.40;99.90;12.40;99093.00;;;;4900588;28;99875;-67
2023/10/29 06:40:58;;;;;;;2.13;1.07;;;12.40;99.90;12.40;99095.00;;;;4901117;28;108886;-67
2023/10/29 06:43:24;;;;;;;1.10;0.87;;;12.40;99.90;12.40;99084.00;;;;4903845;28;108711;-67
2023/10/29 06:45:49;;;;;;;2.03;0.93;;;12.40;99.90;12.50;99077.00;;;;4901524;28;90793;-67
2023/10/29 06:48:15;;;;;;;2.23;1.27;;;12.50;99.90;12.50;99083.00;;;;4907923;28;89047;-68
2023/10/29 06:50:44;;;;;;;1.20;0.93;;;12.50;99.90;12.60;99086.00;;;;4907005;28;87749;-69
2023/10/29 06:53:10;;;;;;;0.77;0.77;;;12.60;99.90;12.60;99092.00;;;;4903120;28;88048;-68
2023/10/29 06:55:37;;;;;;;3.03;1.00;;;12.60;99.90;12.70;99099.00;;;;4902806;28;88751;-68
2023/10/29 06:58:03;;;;;;;1.20;1.00;;;12.70;99.90;12.70;99097.00;;;;4903507;28;88954;-68
2023/10/29 07:00:29;;;;;;;0.60;0.60;;;12.70;99.90;12.70;99102.00;;;;4906122;28;101789;-69
2023/10/29 07:02:55;;;;;;;0.70;0.70;;;12.70;99.90;12.70;99094.00;;;;4903026;28;87278;-68
2023/10/29 07:05:21;;;;;;;8.27;0.70;;;12.70;99.90;12.70;99069.00;;;;4881571;28;97395;-68
2023/10/29 07:07:47;;;;;;;0.20;0.20;;;12.70;99.90;12.70;99052.00;;;;4904216;28;116765;-68
2023/10/29 07:10:13;;;;;;;1.33;1.10;;;12.70;99.90;12.80;99041.00;;;;4904386;28;89538;-69
2023/10/29 07:12:39;;;;;;;0.93;0.67;;;12.80;99.90;12.80;99055.00;;;;4903281;28;87996;-68
2023/10/29 07:15:06;;;;;;;1.07;0.70;;;12.80;99.90;12.90;99059.00;;;;4903137;28;117436;-67
2023/10/29 07:17:31;;;;;;;0.47;0.40;;;12.80;99.90;12.90;99065.00;;;;4907461;28;88681;-69
2023/10/29 07:19:57;;;;;;;0.50;0.50;;;12.90;99.90;12.90;99055.00;;;;4905373;28;87853;-68
2023/10/29 07:22:22;;;;;;;0.73;0.47;;;12.90;99.90;13.00;99067.00;;;;4902566;28;108997;-68
2023/10/29 07:24:48;;;;;;;1.33;1.03;;;13.00;99.90;13.00;99068.00;;;;4905639;28;117813;-67
2023/10/29 07:27:14;;;;;;;0.73;0.73;;;13.00;99.90;13.00;99055.00;;;;4908178;28;104251;-69
2023/10/29 07:29:40;;;;;;;2.00;0.57;;;13.00;99.90;13.10;99067.00;;;;4906511;28;88031;-67
2023/10/29 07:32:06;;;;;;;0.47;0.40;;;13.00;99.90;13.10;99078.00;;;;4909729;28;98383;-67
2023/10/29 07:34:31;;;;;;;1.67;1.00;;;13.10;99.90;13.10;99085.00;;;;4908780;28;107693;-67
2023/10/29 07:36:57;;;;;;;3.97;1.20;;;13.20;99.90;13.20;99087.00;;;;4904310;28;118135;-67
2023/10/29 07:39:22;;;;;;;0.67;0.67;;;13.20;99.90;13.20;99090.00;;;;4909866;28;110253;-67
2023/10/29 07:41:48;;;;;;;1.73;0.80;;;13.20;99.90;13.30;99095.00;;;;4914062;28;108199;-68
2023/10/29 07:44:14;;;;;;;0.73;0.70;;;13.20;99.90;13.30;99097.00;;;;4908564;28;117848;-67
2023/10/29 07:46:40;;;;;;;3.13;0.93;;;13.40;99.90;13.30;99083.00;;;;4912149;28;95368;-67
2023/10/29 07:49:05;;;;;;;3.53;0.97;;;13.30;99.90;13.30;99098.00;;;;4915869;28;108901;-67
2023/10/29 07:51:31;;;;;;;1.20;0.90;;;13.70;99.90;13.40;99087.00;;;;4907076;28;110110;-68
2023/10/29 07:53:57;;;;;;;0.50;0.50;;;13.40;99.90;13.40;99102.00;;;;4909232;28;118703;-67
2023/10/29 07:56:22;;;;;;;2.47;0.77;;;13.40;99.90;13.50;99099.00;;;;4890971;28;95743;-67
2023/10/29 07:58:48;;;;;;;0.70;0.70;;;13.40;99.90;13.50;99104.00;;;;4908595;28;111718;-67
2023/10/29 08:01:16;;;;;;;1.73;0.93;;;13.50;99.90;13.60;99109.00;;;;4910239;28;88064;-68
2023/10/29 08:03:44;;;;;;;2.37;1.27;;;13.50;99.90;13.60;99092.00;;;;4885021;28;88447;-67
2023/10/29 08:06:11;;;;;;;1.23;0.60;;;13.60;99.90;13.70;99105.00;;;;4893465;28;88546;-69
2023/10/29 08:08:37;;;;;;;0.80;0.73;;;13.60;99.90;13.70;99116.00;;;;4908333;28;87947;-67
2023/10/29 08:11:04;;;;;;;1.00;0.60;;;13.70;99.90;13.80;99116.00;;;;4907762;28;88329;-67
2023/10/29 08:13:29;;;;;;;2.35;0.60;;;13.70;99.90;13.80;99113.00;;;;4906507;28;87946;-69
2023/10/29 08:15:58;;;;;;;6.30;0.93;;;13.80;99.90;13.90;99104.00;;;;4907732;28;103410;-67
2023/10/29 08:18:24;;;;;;;0.98;0.60;;;13.90;99.90;14.00;99104.00;;;;4892426;28;88223;-68
2023/10/29 08:20:50;;;;;;;2.27;0.53;;;13.90;99.90;14.00;99104.00;;;;4910264;28;108309;-68
2023/10/29 08:23:16;;;;;;;0.53;0.40;;;14.00;99.90;14.10;99114.00;;;;4904841;28;119634;-67
2023/10/29 08:25:41;;;;;;;0.50;0.50;;;14.00;99.90;14.10;99113.00;;;;4906076;28;117875;-68
2023/10/29 08:28:10;;;;;;;3.00;0.73;;;14.00;99.90;14.20;99110.00;;;;4907965;28;109006;-67
2023/10/29 08:30:36;;;;;;;0.70;0.70;;;14.10;99.90;14.20;99107.00;;;;4906914;28;87835;-68
2023/10/29 08:33:02;;;;;;;1.95;0.60;;;14.10;99.90;14.20;99114.00;;;;4906891;28;116611;-67
2023/10/29 08:35:28;;;;;;;0.40;0.40;;;14.20;99.90;14.30;99116.00;;;;4906363;28;88747;-67
2023/10/29 08:37:54;;;;;;;1.85;0.57;;;14.20;99.90;14.20;99112.00;;;;4907669;28;110586;-68
2023/10/29 08:40:25;;;;;;;0.95;0.75;;;14.20;99.90;14.30;99116.00;;;;4910444;28;87158;-67
2023/10/29 08:42:51;;;;;;;0.70;0.65;;;14.20;99.90;14.30;99120.00;;;;4887460;28;89680;-67
2023/10/29 08:45:17;;;;;;;1.30;0.98;;;14.30;99.90;14.30;99116.00;;;;4907584;28;87961;-68
2023/10/29 08:47:43;;;;;;;1.40;0.87;;;14.30;99.90;14.40;99109.00;;;;4905928;28;88855;-68
2023/10/29 08:50:09;;;;;;;1.98;1.55;;;14.30;99.90;14.40;99110.00;;;;4907274;28;98380;-67
2023/10/29 08:52:35;;;;;;;2.08;0.65;;;14.30;99.90;14.40;99100.00;;;;4908923;28;88845;-68
2023/10/29 08:55:00;;;;;;;0.88;0.57;;;14.30;99.90;14.40;99107.00;;;;4904491;28;88541;-67
2023/10/29 08:57:26;;;;;;;1.45;0.75;;;14.40;99.90;14.50;99121.00;;;;4906936;28;87976;-68
2023/10/29 08:59:52;;;;;;;0.22;0.22;;;14.40;99.90;14.50;99120.00;;;;4909922;28;108802;-68
2023/10/29 09:02:17;;;;;;;2.90;1.63;;;14.50;99.90;14.60;99105.00;;;;4911397;28;87915;-68
2023/10/29 09:04:43;;;;;;;0.33;0.30;;;14.50;99.90;14.60;99111.00;;;;4911553;28;87707;-69
2023/10/29 09:07:09;;;;;;;0.68;0.68;;;14.50;99.90;14.60;99102.00;;;;4910334;28;87790;-68
2023/10/29 09:09:36;;;;;;;1.48;0.80;;;14.50;99.90;14.70;99102.00;;;;4909756;28;109221;-69
2023/10/29 09:12:02;;;;;;;1.17;1.00;;;14.60;99.90;14.70;99106.00;;;;4906537;28;88775;-68
2023/10/29 09:14:27;;;;;;;1.25;0.90;;;14.60;99.90;14.70;99105.00;;;;4908835;28;107155;-68
2023/10/29 09:16:53;;;;;;;2.75;0.93;;;14.70;99.90;14.70;99092.00;;;;4907260;28;110905;-67
2023/10/29 09:19:20;;;;;;;5.88;1.35;;;14.70;99.90;14.80;99095.00;;;;4909133;28;88858;-68
2023/10/29 09:21:46;;;;;;;1.02;0.80;;;14.70;99.90;14.80;99090.00;;;;4908547;28;88750;-67
2023/10/29 09:24:11;;;;;;;2.13;1.15;;;14.70;99.90;14.80;99111.00;;;;4912723;28;88968;-68
2023/10/29 09:26:37;;;;;;;3.10;0.80;;;14.80;99.90;14.80;99111.00;;;;4911821;28;111367;-67
2023/10/29 09:29:03;;;;;;;0.80;0.80;;;14.80;99.90;14.90;99120.00;;;;4904929;28;87362;-69
2023/10/29 09:31:29;;;;;;;1.58;0.70;;;14.80;99.90;14.90;99119.00;;;;4908505;28;97535;-70
2023/10/29 09:33:55;;;;;;;0.57;0.57;;;14.80;99.90;14.90;99142.00;;;;4905195;28;116985;-68
2023/10/29 09:36:22;;;;;;;1.67;0.82;;;14.80;99.90;14.80;99118.00;;;;4905037;28;95497;-64
2023/10/29 09:38:48;;;;;;;1.95;0.70;;;14.80;99.90;14.80;99132.00;;;;4894200;28;88151;-67
2023/10/29 09:41:17;;;;;;;0.57;0.57;;;14.80;99.90;14.80;99138.00;;;;4914814;28;88222;-68
2023/10/29 09:43:44;;;;;;;3.78;1.35;;;14.70;99.90;14.80;99121.00;;;;4885333;28;87884;-67
2023/10/29 09:46:11;;;;;;;2.72;0.93;;;14.70;99.90;14.70;99129.00;;;;4907636;28;88025;-68
2023/10/29 09:48:43;;;;;;;1.83;0.93;;;14.70;99.90;14.70;99127.00;;;;4911524;28;87827;-69
2023/10/29 09:51:09;;;;;;;2.78;1.40;;;14.70;99.90;14.70;99124.00;;;;4890562;28;89640;-67
2023/10/29 09:53:37;;;;;;;1.55;0.70;;;14.70;99.90;14.70;99123.00;;;;4907905;28;117707;-68
2023/10/29 09:56:07;;;;;;;0.68;0.68;;;14.70;99.90;14.80;99134.00;;;;4911233;28;88303;-68
2023/10/29 09:58:34;;;;;;;2.97;2.40;;;14.70;99.90;14.80;99128.00;;;;4908397;28;87923;-67
2023/10/29 10:01:01;;;;;;;1.17;1.05;;;14.70;99.90;14.80;99113.00;;;;4906344;28;90248;-67
2023/10/29 10:03:27;;;;;;;0.85;0.68;;;14.80;99.90;14.80;99105.00;;;;4904552;28;89122;-67
2023/10/29 10:05:55;;;;;;;2.28;2.08;;;14.80;99.90;14.90;99114.00;;;;4905029;28;88363;-67
2023/10/29 10:08:28;;;;;;;6.05;2.03;;;14.80;99.90;14.90;99101.00;;;;4907836;28;89375;-67
2023/10/29 10:10:57;;;;;;;0.88;0.73;;;14.80;99.90;14.90;99107.00;;;;4906897;28;105499;-67
2023/10/29 10:13:36;;;;;;;4.07;1.88;;;14.80;99.90;14.90;99110.00;;;;4905846;28;88213;-66
2023/10/29 10:16:08;;;;;;;2.47;1.08;;;14.90;99.90;15.00;99120.00;;;;4909496;28;87941;-68
2023/10/29 10:18:57;;;;;;;1.45;1.17;;;14.90;99.90;15.00;99117.00;;;;4908852;28;87293;-68
2023/10/29 10:21:43;;;;;;;3.78;0.95;;;14.90;99.90;15.00;99128.00;;;;4907045;28;88023;-70
2023/10/29 10:24:10;;;;;;;2.25;1.80;;;14.90;99.90;15.00;99126.00;;;;4907837;28;88243;-68
2023/10/29 10:26:38;;;;;;;1.52;0.98;;;15.00;99.90;15.10;99129.00;;;;4907814;28;88948;-66
2023/10/29 10:29:08;;;;;;;1.90;1.33;;;15.00;99.90;15.10;99130.00;;;;4907531;28;87947;-67
2023/10/29 10:31:35;;;;;;;0.95;0.75;;;15.00;99.90;15.10;99135.00;;;;4903893;28;88492;-66
2023/10/29 10:34:18;;;;;;;0.80;0.80;;;15.10;99.90;15.10;99124.00;;;;4904562;28;88515;-67
2023/10/29 10:36:50;;;;;;;1.70;0.98;;;15.10;99.90;15.10;99120.00;;;;4906193;28;88031;-67
2023/10/29 10:39:22;;;;;;;0.65;0.65;;;15.00;99.90;15.10;99128.00;;;;4876370;28;88134;-68
2023/10/29 10:41:49;;;;;;;2.00;1.25;;;15.00;99.90;15.00;99118.00;;;;4906387;28;88857;-66
2023/10/29 10:44:19;;;;;;;1.67;1.02;;;15.00;99.90;15.00;99112.00;;;;4904152;28;88053;-69
2023/10/29 10:46:56;;;;;;;2.20;1.25;;;15.00;99.90;15.00;99108.00;;;;4903448;28;87749;-67
2023/10/29 10:49:22;;;;;;;1.13;1.02;;;15.00;99.90;15.00;99109.00;;;;4904161;28;88008;-69
2023/10/29 10:51:54;;;;;;;0.77;0.63;;;15.00;99.90;15.00;99127.00;;;;4908845;28;100171;-67